createdAt,value
2024-02-02T00:00:25.747Z,5.40
2024-02-02T00:02:53.871Z,13.60
2024-02-02T00:05:21.973Z,12.20
2024-02-02T00:07:50.356Z,11.20
2024-02-02T00:10:18.633Z,7.80
2024-02-02T00:12:48.645Z,10.00
2024-02-02T00:15:19.007Z,11.60
2024-02-02T00:17:47.752Z,12.60
2024-02-02T00:20:16.877Z,13.80
2024-02-02T00:22:45.030Z,14.60
2024-02-02T00:25:13.179Z,13.00
2024-02-02T00:27:41.241Z,9.80
2024-02-02T00:30:12.578Z,14.20
2024-02-02T00:32:45.928Z,8.60
2024-02-02T00:35:14.782Z,10.40
2024-02-02T00:37:43.319Z,5.60
2024-02-02T00:40:11.804Z,6.60
2024-02-02T00:42:40.284Z,12.00
2024-02-02T00:45:11.040Z,2.60
2024-02-02T00:47:39.140Z,7.80
2024-02-02T00:50:08.498Z,12.20
2024-02-02T00:52:36.721Z,10.80
2024-02-02T00:55:05.063Z,7.40
2024-02-02T00:57:33.469Z,10.40
2024-02-02T01:00:01.597Z,7.20
2024-02-02T01:02:32.534Z,10.00
2024-02-02T01:05:00.600Z,8.00
2024-02-02T01:07:29.006Z,7.20
2024-02-02T01:09:57.423Z,10.80
2024-02-02T01:12:25.852Z,9.20
2024-02-02T01:14:54.235Z,10.20
2024-02-02T01:17:22.536Z,13.00
2024-02-02T01:19:52.161Z,14.60
2024-02-02T01:22:20.568Z,9.80
2024-02-02T01:24:48.696Z,9.60
2024-02-02T01:27:16.823Z,9.80
2024-02-02T01:29:44.936Z,12.40
2024-02-02T01:32:13.064Z,4.00
2024-02-02T01:34:41.596Z,10.80
2024-02-02T01:37:11.256Z,9.00
2024-02-02T01:39:39.356Z,15.60
2024-02-02T01:42:07.831Z,13.20
2024-02-02T01:44:35.960Z,7.80
2024-02-02T01:47:05.336Z,17.60
2024-02-02T01:49:35.555Z,14.00
2024-02-02T01:52:04.067Z,12.00
2024-02-02T01:54:33.563Z,22.00
2024-02-02T01:57:01.713Z,11.60
2024-02-02T01:59:29.848Z,12.80
2024-02-02T02:01:59.070Z,10.80
2024-02-02T02:04:27.310Z,13.00
2024-02-02T02:06:55.808Z,7.00
2024-02-02T02:09:23.962Z,11.60
2024-02-02T02:11:53.927Z,12.20
2024-02-02T02:14:22.216Z,3.80
2024-02-02T02:16:51.615Z,16.00
2024-02-02T02:19:20.210Z,9.40
2024-02-02T02:21:49.794Z,13.60
2024-02-02T02:24:17.923Z,9.40
2024-02-02T02:26:46.157Z,12.20
2024-02-02T02:29:14.279Z,12.60
2024-02-02T02:31:42.645Z,9.20
2024-02-02T02:34:11.023Z,12.80
2024-02-02T02:36:39.220Z,10.20
2024-02-02T02:39:09.295Z,11.20
2024-02-02T02:41:37.411Z,12.60
2024-02-02T02:44:06.021Z,9.40
2024-02-02T02:46:34.078Z,12.40
2024-02-02T02:49:02.225Z,11.60
2024-02-02T02:51:30.389Z,11.80
2024-02-02T02:53:58.483Z,9.60
2024-02-02T02:56:28.357Z,15.00
2024-02-02T02:58:56.428Z,8.20
2024-02-02T03:01:24.557Z,14.60
2024-02-02T03:03:52.669Z,13.40
2024-02-02T03:06:20.862Z,14.60
2024-02-02T03:08:49.054Z,13.20
2024-02-02T03:11:17.572Z,16.00
2024-02-02T03:13:47.239Z,10.80
2024-02-02T03:16:15.351Z,10.20
2024-02-02T03:18:45.538Z,12.20
2024-02-02T03:21:13.852Z,10.00
2024-02-02T03:23:42.232Z,9.40
2024-02-02T03:26:10.839Z,9.80
2024-02-02T03:28:38.878Z,10.00
2024-02-02T03:31:08.460Z,12.80
2024-02-02T03:33:36.793Z,10.80
2024-02-02T03:36:05.459Z,7.40
2024-02-02T03:38:33.629Z,12.00
2024-02-02T03:41:01.674Z,12.00
2024-02-02T03:43:29.715Z,12.20
2024-02-02T03:45:57.817Z,8.20
2024-02-02T03:48:27.425Z,12.00
2024-02-02T03:50:55.716Z,9.00
2024-02-02T03:53:23.915Z,9.20
2024-02-02T03:55:52.041Z,11.40
2024-02-02T03:58:20.097Z,9.80
2024-02-02T04:00:48.811Z,7.00
2024-02-02T04:03:17.124Z,9.80
2024-02-02T04:05:46.692Z,15.20
2024-02-02T04:08:14.823Z,12.60
2024-02-02T04:10:43.042Z,12.80
2024-02-02T04:13:11.478Z,9.20
2024-02-02T04:15:41.057Z,11.60
2024-02-02T04:18:09.416Z,9.00
2024-02-02T04:20:37.534Z,8.60
2024-02-02T04:23:07.298Z,6.60
2024-02-02T04:25:35.624Z,8.60
2024-02-02T04:28:03.714Z,9.00
2024-02-02T04:30:32.364Z,9.80
2024-02-02T04:33:00.693Z,8.00
2024-02-02T04:35:31.071Z,10.40
2024-02-02T04:38:00.239Z,12.60
2024-02-02T04:40:29.761Z,5.20
2024-02-02T04:42:57.867Z,10.00
2024-02-02T04:45:26.040Z,9.00
2024-02-02T04:47:54.263Z,9.20
2024-02-02T04:50:23.292Z,6.60
2024-02-02T04:52:51.459Z,9.00
2024-02-02T04:55:19.549Z,6.00
2024-02-02T04:57:49.049Z,10.00
2024-02-02T05:00:17.981Z,9.40
2024-02-02T05:02:46.427Z,9.00
2024-02-02T05:05:15.468Z,6.80
2024-02-02T05:07:43.582Z,7.80
2024-02-02T05:10:11.921Z,9.00
2024-02-02T05:12:40.051Z,9.40
2024-02-02T05:15:10.487Z,7.40
2024-02-02T05:17:38.693Z,8.20
2024-02-02T05:20:08.908Z,10.40
2024-02-02T05:22:37.011Z,9.40
2024-02-02T05:25:06.253Z,6.60
2024-02-02T05:27:34.389Z,7.40
2024-02-02T05:30:02.568Z,7.00
2024-02-02T05:32:32.036Z,7.00
2024-02-02T05:35:00.247Z,7.00
2024-02-02T05:37:28.488Z,10.80
2024-02-02T05:39:56.612Z,7.00
2024-02-02T05:42:25.032Z,5.80
2024-02-02T05:44:53.307Z,10.60
2024-02-02T05:47:22.227Z,7.80
2024-02-02T05:49:51.911Z,7.00
2024-02-02T05:52:20.061Z,6.40
2024-02-02T05:54:48.135Z,9.00
2024-02-02T05:57:16.261Z,6.60
2024-02-02T05:59:44.656Z,5.60
2024-02-02T06:02:12.725Z,10.40
2024-02-02T06:04:40.930Z,9.80
2024-02-02T06:07:10.530Z,6.00
2024-02-02T06:09:38.775Z,7.00
2024-02-02T06:12:07.691Z,4.00
2024-02-02T06:14:35.786Z,6.60
2024-02-02T06:17:04.085Z,7.40
2024-02-02T06:19:32.376Z,9.20
2024-02-02T06:22:00.605Z,8.20
2024-02-02T06:24:30.224Z,9.20
2024-02-02T06:26:58.336Z,6.20
2024-02-02T06:29:29.507Z,6.00
2024-02-02T06:31:58.705Z,6.00
2024-02-02T06:34:26.931Z,9.40
2024-02-02T06:36:55.507Z,8.00
2024-02-02T06:39:25.243Z,4.40
2024-02-02T06:41:54.902Z,7.00
2024-02-02T06:44:23.434Z,6.20
2024-02-02T06:46:51.543Z,7.00
2024-02-02T06:49:19.851Z,9.00
2024-02-02T06:51:49.029Z,8.00
2024-02-02T06:54:17.287Z,5.40
2024-02-02T06:56:46.075Z,6.40
2024-02-02T06:59:17.603Z,8.20
2024-02-02T07:01:47.392Z,6.40
2024-02-02T07:04:16.260Z,6.00
2024-02-02T07:06:45.374Z,8.00
2024-02-02T07:09:28.012Z,9.00
2024-02-02T07:11:59.025Z,6.80
2024-02-02T07:14:56.360Z,4.80
2024-02-02T07:17:33.968Z,6.80
2024-02-02T07:20:02.147Z,1.80
2024-02-02T07:22:34.778Z,6.20
2024-02-02T07:25:02.986Z,5.40
2024-02-02T07:27:51.032Z,4.00
2024-02-02T07:30:55.756Z,3.40
2024-02-02T07:33:24.906Z,6.00
2024-02-02T07:35:53.098Z,6.00
2024-02-02T07:38:45.694Z,7.20
2024-02-02T07:41:14.382Z,6.00
2024-02-02T07:43:42.509Z,5.00
2024-02-02T07:46:16.082Z,4.00
2024-02-02T07:48:45.015Z,7.80
2024-02-02T07:51:13.537Z,2.40
2024-02-02T07:53:41.700Z,4.80
2024-02-02T07:56:10.595Z,6.20
2024-02-02T07:58:38.712Z,3.00
2024-02-02T08:01:08.251Z,4.00
2024-02-02T08:03:44.926Z,5.40
2024-02-02T08:08:59.573Z,4.40
2024-02-02T08:11:31.090Z,6.60
2024-02-02T08:13:59.231Z,6.20
2024-02-02T08:16:27.374Z,6.00
2024-02-02T08:18:57.095Z,6.00
2024-02-02T08:21:27.246Z,5.40
2024-02-02T08:23:55.771Z,3.00
2024-02-02T08:26:23.924Z,5.20
2024-02-02T08:28:55.125Z,3.20
2024-02-02T08:31:23.664Z,3.00
2024-02-02T08:33:51.804Z,3.60
2024-02-02T08:36:21.725Z,4.80
2024-02-02T08:38:49.834Z,3.00
2024-02-02T08:41:18.214Z,3.80
2024-02-02T08:43:48.480Z,3.80
2024-02-02T08:46:20.741Z,4.00
2024-02-02T08:48:50.121Z,4.80
2024-02-02T08:51:51.211Z,6.00
2024-02-02T08:54:49.274Z,2.60
2024-02-02T08:57:31.030Z,2.60
2024-02-02T09:00:06.056Z,3.80
2024-02-02T09:03:06.058Z,3.20
2024-02-02T09:05:52.632Z,5.40
2024-02-02T09:08:34.342Z,4.00
2024-02-02T09:11:21.905Z,1.00
2024-02-02T09:13:50.279Z,3.00
2024-02-02T09:16:19.021Z,1.00
2024-02-02T09:18:46.853Z,4.00
2024-02-02T09:21:16.927Z,4.00
2024-02-02T09:23:51.431Z,3.60
2024-02-02T09:26:27.493Z,6.00
2024-02-02T09:29:03.250Z,7.40
2024-02-02T09:31:33.579Z,2.20
2024-02-02T09:34:01.896Z,3.60
2024-02-02T09:36:30.118Z,4.40
2024-02-02T09:39:01.936Z,4.00
2024-02-02T09:41:47.751Z,3.60
2024-02-02T09:44:26.446Z,3.00
2024-02-02T09:46:58.851Z,3.60
2024-02-02T09:49:31.804Z,4.80
2024-02-02T09:52:03.839Z,3.40
2024-02-02T09:54:36.760Z,4.00
2024-02-02T09:57:10.012Z,10.40
2024-02-02T09:59:52.065Z,5.80
2024-02-02T10:02:41.418Z,5.20
2024-02-02T10:05:13.916Z,2.20
2024-02-02T10:07:46.394Z,2.20
2024-02-02T10:13:10.951Z,7.00
2024-02-02T10:15:52.192Z,6.00
2024-02-02T10:18:42.540Z,4.00
2024-02-02T10:25:04.412Z,3.40
2024-02-02T10:27:41.231Z,3.00
2024-02-02T10:30:18.698Z,4.00
2024-02-02T10:33:02.389Z,1.00
2024-02-02T10:35:34.161Z,4.00
2024-02-02T10:38:13.846Z,0.60
2024-02-02T10:40:42.751Z,3.00
2024-02-02T10:43:26.119Z,2.20
2024-02-02T10:46:07.487Z,3.00
2024-02-02T10:48:54.467Z,3.20
2024-02-02T10:51:27.596Z,3.00
2024-02-02T10:54:02.694Z,4.80
2024-02-02T10:56:34.281Z,0.80
2024-02-02T10:59:14.109Z,3.80
2024-02-02T11:01:47.628Z,2.60
2024-02-02T11:04:21.312Z,1.40
2024-02-02T11:06:51.862Z,6.00
2024-02-02T11:09:23.337Z,5.60
2024-02-02T11:11:58.204Z,9.00
2024-02-02T11:14:31.025Z,4.00
2024-02-02T11:17:03.062Z,2.20
2024-02-02T11:19:50.230Z,3.80
2024-02-02T11:22:24.377Z,2.20
2024-02-02T11:24:59.902Z,6.60
2024-02-02T11:27:29.838Z,6.00
2024-02-02T11:30:03.784Z,1.60
2024-02-02T11:32:58.640Z,3.00
2024-02-02T11:35:30.536Z,6.00
2024-02-02T11:38:08.186Z,3.40
2024-02-02T11:40:36.336Z,6.60
2024-02-02T11:43:04.870Z,6.60
2024-02-02T11:45:38.074Z,10.40
2024-02-02T11:48:09.295Z,5.60
2024-02-02T11:50:40.028Z,3.60
2024-02-02T11:53:13.929Z,3.80
2024-02-02T11:55:42.858Z,4.80
2024-02-02T11:58:12.182Z,4.20
2024-02-02T12:00:49.305Z,11.40
2024-02-02T12:03:25.817Z,8.00
2024-02-02T12:05:59.564Z,8.60
2024-02-02T12:08:31.890Z,16.80
2024-02-02T12:11:00.102Z,15.20
2024-02-02T12:13:32.457Z,13.40
2024-02-02T12:16:00.908Z,25.80
2024-02-02T12:18:30.451Z,14.40
2024-02-02T12:20:58.637Z,8.60
2024-02-02T12:23:26.720Z,20.00
2024-02-02T12:25:54.989Z,29.40
2024-02-02T12:28:23.230Z,14.20
2024-02-02T12:30:51.332Z,11.60
2024-02-02T12:33:22.269Z,25.00
2024-02-02T12:35:53.340Z,23.20
2024-02-02T12:38:23.652Z,19.60
2024-02-02T12:40:52.267Z,8.60
2024-02-02T12:43:24.818Z,10.80
2024-02-02T12:45:55.653Z,12.60
2024-02-02T12:48:28.388Z,26.80
2024-02-02T12:50:58.367Z,35.60
2024-02-02T12:53:26.617Z,57.60
2024-02-02T12:55:54.883Z,62.40
2024-02-02T12:58:23.490Z,59.00
2024-02-02T13:00:51.807Z,67.00
2024-02-02T13:03:20.540Z,72.00
2024-02-02T13:05:48.698Z,59.60
2024-02-02T13:08:28.458Z,70.00
2024-02-02T13:13:26.670Z,65.00
2024-02-02T13:15:55.149Z,59.00
2024-02-02T13:18:25.009Z,63.20
2024-02-02T13:20:55.477Z,61.80
2024-02-02T13:23:26.636Z,66.75
2024-02-02T13:25:55.664Z,64.25
2024-02-02T13:28:24.804Z,60.60
2024-02-02T13:30:58.994Z,76.25
2024-02-02T13:33:31.414Z,83.50
2024-02-02T13:36:00.363Z,80.25
2024-02-02T13:38:32.635Z,79.50
2024-02-02T13:41:01.845Z,43.60
2024-02-02T13:43:30.046Z,55.60
2024-02-02T13:46:04.880Z,24.20
2024-02-02T13:48:41.322Z,14.60
2024-02-02T13:51:12.288Z,16.60
2024-02-02T13:53:41.869Z,15.80
2024-02-02T13:56:11.793Z,14.00
2024-02-02T13:58:40.777Z,13.20
2024-02-02T14:01:19.643Z,4.80
2024-02-02T14:03:48.618Z,16.80
2024-02-02T14:06:17.279Z,9.20
2024-02-02T14:08:48.064Z,10.80
2024-02-02T14:11:23.869Z,16.40
2024-02-02T14:14:00.552Z,37.00
2024-02-02T14:16:36.949Z,35.20
2024-02-02T14:19:07.399Z,34.00
2024-02-02T14:21:38.232Z,31.20
2024-02-02T14:24:09.314Z,65.00
2024-02-02T14:26:47.780Z,41.60
2024-02-02T14:29:15.875Z,81.75
2024-02-02T14:31:44.873Z,77.00
2024-02-02T14:34:13.892Z,73.25
2024-02-02T14:36:42.199Z,80.00
2024-02-02T14:39:15.641Z,56.00
2024-02-02T14:41:45.051Z,72.00
2024-02-02T14:44:13.095Z,44.80
2024-02-02T14:46:41.494Z,64.00
2024-02-02T14:49:10.355Z,47.60
2024-02-02T14:51:39.139Z,53.80
2024-02-02T14:54:08.052Z,62.80
2024-02-02T14:56:38.735Z,59.40
2024-02-02T14:59:10.029Z,60.40
2024-02-02T15:01:38.521Z,28.40
2024-02-02T15:04:07.264Z,23.00
2024-02-02T15:06:38.783Z,19.60
2024-02-02T15:09:15.214Z,19.80
2024-02-02T15:11:45.621Z,11.80
2024-02-02T15:14:15.784Z,12.20
2024-02-02T15:16:43.899Z,9.60
2024-02-02T15:19:12.210Z,10.40
2024-02-02T15:21:40.580Z,10.40
2024-02-02T15:24:09.070Z,18.60
2024-02-02T15:26:39.169Z,9.40
2024-02-02T15:29:12.240Z,14.00
2024-02-02T15:31:40.429Z,15.20
2024-02-02T15:34:09.511Z,8.60
2024-02-02T15:36:38.284Z,10.00
2024-02-02T15:39:19.111Z,9.00
2024-02-02T15:41:55.001Z,9.20
2024-02-02T15:44:25.479Z,12.40
2024-02-02T15:46:53.742Z,11.20
2024-02-02T15:49:22.224Z,11.20
2024-02-02T15:51:50.446Z,14.80
2024-02-02T15:54:18.847Z,12.20
2024-02-02T15:56:47.329Z,12.20
2024-02-02T15:59:16.509Z,14.20
2024-02-02T16:01:48.400Z,11.60
2024-02-02T16:04:16.780Z,15.80
2024-02-02T16:06:45.929Z,15.60
2024-02-02T16:09:14.442Z,12.80
2024-02-02T16:11:45.852Z,11.20
2024-02-02T16:14:18.025Z,13.80
2024-02-02T16:16:48.598Z,19.40
2024-02-02T16:19:17.250Z,20.60
2024-02-02T16:21:45.988Z,15.20
2024-02-02T16:24:13.284Z,16.40
2024-02-02T16:26:48.421Z,18.00
2024-02-02T16:29:20.035Z,17.60
2024-02-02T16:31:50.141Z,15.40
2024-02-02T16:34:18.470Z,17.60
2024-02-02T16:36:47.557Z,16.80
2024-02-02T16:39:18.656Z,19.60
2024-02-02T16:41:49.191Z,13.40
2024-02-02T16:44:19.872Z,18.60
2024-02-02T16:46:50.213Z,17.60
2024-02-02T16:49:18.922Z,14.00
2024-02-02T16:51:47.313Z,25.20
2024-02-02T16:54:15.404Z,22.20
2024-02-02T16:56:43.506Z,17.60
2024-02-02T16:59:11.732Z,16.40
2024-02-02T17:01:39.968Z,20.00
2024-02-02T17:04:09.642Z,19.80
2024-02-02T17:06:41.503Z,20.20
2024-02-02T17:09:09.932Z,19.80
2024-02-02T17:11:38.137Z,23.60
2024-02-02T17:14:06.247Z,17.40
2024-02-02T17:16:34.306Z,18.80
2024-02-02T17:19:02.438Z,26.20
2024-02-02T17:21:32.041Z,20.20
2024-02-02T17:24:00.224Z,22.60
2024-02-02T17:26:28.561Z,12.60
2024-02-02T17:29:00.537Z,22.40
2024-02-02T17:31:35.700Z,21.60
2024-02-02T17:34:04.038Z,21.80
2024-02-02T17:36:33.670Z,22.80
2024-02-02T17:39:01.776Z,25.20
2024-02-02T17:41:30.007Z,20.60
2024-02-02T17:43:58.262Z,23.60
2024-02-02T17:46:26.328Z,19.20
2024-02-02T17:48:54.849Z,16.20
2024-02-02T17:51:23.972Z,19.80
2024-02-02T17:53:53.666Z,12.00
2024-02-02T17:56:22.555Z,16.40
2024-02-02T17:58:56.217Z,18.40
2024-02-02T18:01:25.544Z,19.80
2024-02-02T18:03:54.152Z,17.60
2024-02-02T18:06:23.572Z,22.00
2024-02-02T18:08:53.992Z,19.80
2024-02-02T18:11:22.444Z,17.60
2024-02-02T18:13:50.598Z,16.40
2024-02-02T18:16:18.904Z,16.00
2024-02-02T18:18:47.660Z,22.40
2024-02-02T18:21:15.824Z,15.80
2024-02-02T18:23:43.975Z,18.40
2024-02-02T18:26:13.451Z,23.00
2024-02-02T18:28:41.537Z,18.40
2024-02-02T18:31:09.612Z,20.60
2024-02-02T18:33:38.586Z,18.20
2024-02-02T18:36:07.777Z,15.80
2024-02-02T18:38:38.278Z,17.00
2024-02-02T18:41:07.669Z,21.80
2024-02-02T18:43:37.240Z,26.20
2024-02-02T18:46:05.677Z,15.20
2024-02-02T18:48:37.458Z,18.80
2024-02-02T18:51:07.927Z,19.00
2024-02-02T18:53:36.095Z,23.20
2024-02-02T18:56:08.408Z,20.60
2024-02-02T18:58:42.554Z,17.60
2024-02-02T19:01:18.632Z,19.40
2024-02-02T19:03:46.915Z,17.20
2024-02-02T19:06:15.161Z,16.40
2024-02-02T19:08:43.292Z,19.20
2024-02-02T19:11:13.945Z,16.80
2024-02-02T19:13:43.794Z,21.20
2024-02-02T19:16:21.496Z,14.80
2024-02-02T19:18:49.806Z,19.00
2024-02-02T19:21:21.287Z,12.80
2024-02-02T19:23:49.431Z,19.60
2024-02-02T19:26:17.512Z,17.80
2024-02-02T19:28:47.263Z,21.20
2024-02-02T19:31:21.763Z,15.80
2024-02-02T19:33:50.215Z,18.20
2024-02-02T19:36:22.465Z,15.00
2024-02-02T19:38:50.679Z,19.40
2024-02-02T19:41:20.056Z,18.80
2024-02-02T19:43:49.693Z,13.40
2024-02-02T19:46:23.852Z,15.80
2024-02-02T19:48:52.482Z,18.20
2024-02-02T19:51:21.169Z,15.20
2024-02-02T19:53:49.627Z,15.00
2024-02-02T19:56:19.437Z,20.80
2024-02-02T19:58:48.054Z,17.80
2024-02-02T20:01:17.887Z,16.40
2024-02-02T20:03:46.589Z,14.00
2024-02-02T20:06:15.539Z,13.40
2024-02-02T20:08:44.012Z,21.00
2024-02-02T20:11:14.046Z,15.00
2024-02-02T20:13:42.118Z,15.60
2024-02-02T20:16:10.625Z,17.20
2024-02-02T20:18:40.261Z,15.00
2024-02-02T20:21:08.606Z,19.20
2024-02-02T20:23:40.961Z,19.20
2024-02-02T20:26:09.513Z,16.40
2024-02-02T20:28:37.591Z,11.20
2024-02-02T20:31:06.833Z,15.00
2024-02-02T20:33:35.402Z,17.80
2024-02-02T20:36:05.460Z,13.20
2024-02-02T20:38:33.527Z,16.60
2024-02-02T20:41:04.766Z,15.80
2024-02-02T20:43:33.178Z,10.00
2024-02-02T20:46:01.257Z,12.00
2024-02-02T20:48:29.409Z,10.40
2024-02-02T20:50:57.652Z,14.20
2024-02-02T20:53:27.169Z,10.00
2024-02-02T20:55:55.601Z,9.60
2024-02-02T20:58:23.806Z,10.00
2024-02-02T21:00:52.274Z,10.40
2024-02-02T21:03:20.928Z,8.60
2024-02-02T21:05:49.116Z,9.00
2024-02-02T21:08:17.343Z,15.80
2024-02-02T21:10:46.868Z,8.60
2024-02-02T21:13:18.379Z,9.40
2024-02-02T21:15:47.312Z,8.60
2024-02-02T21:18:16.587Z,9.80
2024-02-02T21:20:46.855Z,8.60
2024-02-02T21:23:16.358Z,8.60
2024-02-02T21:25:45.207Z,10.80
2024-02-02T21:28:15.046Z,8.60
2024-02-02T21:30:44.762Z,14.20
2024-02-02T21:33:13.609Z,9.60
2024-02-02T21:35:42.445Z,10.00
2024-02-02T21:38:10.815Z,11.00
2024-02-02T21:40:38.939Z,7.80
2024-02-02T21:43:07.014Z,8.60
2024-02-02T21:45:37.916Z,15.40
2024-02-02T21:48:07.256Z,9.80
2024-02-02T21:50:35.472Z,4.40
2024-02-02T21:53:03.627Z,11.60
2024-02-02T21:55:31.847Z,6.60
2024-02-02T21:58:00.483Z,10.80
2024-02-02T22:00:28.850Z,7.40
2024-02-02T22:02:58.401Z,8.80
2024-02-02T22:05:26.616Z,9.20
2024-02-02T22:07:54.941Z,11.20
2024-02-02T22:10:23.360Z,5.40
2024-02-02T22:12:51.552Z,7.40
2024-02-02T22:15:20.247Z,6.00
2024-02-02T22:17:48.465Z,7.20
2024-02-02T22:20:18.618Z,8.20
2024-02-02T22:22:47.065Z,9.00
2024-02-02T22:25:15.307Z,7.20
2024-02-02T22:27:45.832Z,10.00
2024-02-02T22:30:14.957Z,11.40
2024-02-02T22:32:43.100Z,11.60
2024-02-02T22:35:12.380Z,7.00
2024-02-02T22:37:45.293Z,10.40
2024-02-02T22:40:14.234Z,9.60
2024-02-02T22:42:42.426Z,9.00
2024-02-02T22:45:12.200Z,11.60
2024-02-02T22:47:40.455Z,13.40
2024-02-02T22:50:11.449Z,10.40
2024-02-02T22:52:41.379Z,12.80
2024-02-02T22:55:10.434Z,9.00
2024-02-02T22:57:38.813Z,4.00
2024-02-02T23:00:11.120Z,11.60
2024-02-02T23:02:39.315Z,7.20
2024-02-02T23:05:07.677Z,11.20
2024-02-02T23:07:35.758Z,8.60
2024-02-02T23:10:05.979Z,8.20
2024-02-02T23:12:34.196Z,6.80
2024-02-02T23:15:02.356Z,7.80
2024-02-02T23:17:30.499Z,9.80
2024-02-02T23:19:58.747Z,7.60
2024-02-02T23:22:27.314Z,13.00
2024-02-02T23:24:55.846Z,6.60
2024-02-02T23:27:25.512Z,6.40
2024-02-02T23:29:53.601Z,7.00
2024-02-02T23:32:21.778Z,1.80
2024-02-02T23:34:50.790Z,12.00
2024-02-02T23:37:19.007Z,7.00
2024-02-02T23:39:48.440Z,7.00
2024-02-02T23:42:17.253Z,5.60
2024-02-02T23:44:46.778Z,6.80
2024-02-02T23:47:15.168Z,6.00
2024-02-02T23:49:43.374Z,10.40
2024-02-02T23:52:11.673Z,8.20
2024-02-02T23:54:39.938Z,7.00
2024-02-02T23:57:08.133Z,6.40
2024-02-02T23:59:36.532Z,8.60
